sensor_id;sensor_type;location;lat;lon;timestamp;P1;durP1;ratioP1;P2;durP2;ratioP2
18100;SDS011;9177;49.156;8.142;2022-12-18T00:00:42;9.60;;;8.70;;
18100;SDS011;9177;49.156;8.142;2022-12-18T00:03:09;9.20;;;8.40;;
18100;SDS011;9177;49.156;8.142;2022-12-18T00:05:45;10.40;;;9.47;;
18100;SDS011;9177;49.156;8.142;2022-12-18T00:08:12;8.83;;;8.03;;
18100;SDS011;9177;49.156;8.142;2022-12-18T00:10:39;9.43;;;8.53;;
18100;SDS011;9177;49.156;8.142;2022-12-18T00:13:06;9.87;;;8.87;;
18100;SDS011;9177;49.156;8.142;2022-12-18T00:15:33;10.03;;;9.03;;
18100;SDS011;9177;49.156;8.142;2022-12-18T00:17:59;9.77;;;8.80;;
18100;SDS011;9177;49.156;8.142;2022-12-18T00:20:26;9.50;;;8.67;;
18100;SDS011;9177;49.156;8.142;2022-12-18T00:22:55;10.03;;;9.03;;
18100;SDS011;9177;49.156;8.142;2022-12-18T00:25:22;8.77;;;7.87;;
18100;SDS011;9177;49.156;8.142;2022-12-18T00:27:49;9.80;;;8.90;;
18100;SDS011;9177;49.156;8.142;2022-12-18T00:30:15;10.20;;;9.20;;
18100;SDS011;9177;49.156;8.142;2022-12-18T00:32:42;9.63;;;8.73;;
18100;SDS011;9177;49.156;8.142;2022-12-18T00:35:09;9.77;;;8.87;;
18100;SDS011;9177;49.156;8.142;2022-12-18T00:37:36;10.00;;;9.00;;
18100;SDS011;9177;49.156;8.142;2022-12-18T00:40:05;9.87;;;8.97;;
18100;SDS011;9177;49.156;8.142;2022-12-18T00:42:33;9.43;;;8.53;;
18100;SDS011;9177;49.156;8.142;2022-12-18T00:45:19;9.60;;;8.70;;
18100;SDS011;9177;49.156;8.142;2022-12-18T00:47:45;9.77;;;8.87;;
18100;SDS011;9177;49.156;8.142;2022-12-18T00:50:12;9.90;;;8.90;;
18100;SDS011;9177;49.156;8.142;2022-12-18T00:52:39;10.20;;;9.20;;
18100;SDS011;9177;49.156;8.142;2022-12-18T00:55:08;9.33;;;8.43;;
18100;SDS011;9177;49.156;8.142;2022-12-18T00:57:35;9.77;;;8.77;;
18100;SDS011;9177;49.156;8.142;2022-12-18T01:00:02;10.17;;;9.27;;
18100;SDS011;9177;49.156;8.142;2022-12-18T01:02:30;9.97;;;9.07;;
18100;SDS011;9177;49.156;8.142;2022-12-18T01:04:57;10.20;;;9.20;;
18100;SDS011;9177;49.156;8.142;2022-12-18T01:07:24;9.80;;;8.90;;
18100;SDS011;9177;49.156;8.142;2022-12-18T01:09:51;10.30;;;9.30;;
18100;SDS011;9177;49.156;8.142;2022-12-18T01:12:19;9.80;;;8.83;;
18100;SDS011;9177;49.156;8.142;2022-12-18T01:14:46;11.03;;;9.93;;
18100;SDS011;9177;49.156;8.142;2022-12-18T01:17:13;10.50;;;9.50;;
18100;SDS011;9177;49.156;8.142;2022-12-18T01:19:40;10.80;;;9.73;;
18100;SDS011;9177;49.156;8.142;2022-12-18T01:22:07;10.27;;;9.27;;
18100;SDS011;9177;49.156;8.142;2022-12-18T01:24:34;9.43;;;8.53;;
18100;SDS011;9177;49.156;8.142;2022-12-18T01:27:01;10.40;;;9.30;;
18100;SDS011;9177;49.156;8.142;2022-12-18T01:29:30;10.47;;;9.47;;
18100;SDS011;9177;49.156;8.142;2022-12-18T01:31:57;10.30;;;9.30;;
18100;SDS011;9177;49.156;8.142;2022-12-18T01:34:24;10.43;;;9.40;;
18100;SDS011;9177;49.156;8.142;2022-12-18T01:36:51;9.90;;;8.90;;
18100;SDS011;9177;49.156;8.142;2022-12-18T01:39:18;10.13;;;9.13;;
18100;SDS011;9177;49.156;8.142;2022-12-18T01:41:45;9.67;;;8.77;;
18100;SDS011;9177;49.156;8.142;2022-12-18T01:47:30;10.20;;;9.20;;
18100;SDS011;9177;49.156;8.142;2022-12-18T01:50:01;9.50;;;8.50;;
18100;SDS011;9177;49.156;8.142;2022-12-18T01:52:31;10.57;;;9.47;;
18100;SDS011;9177;49.156;8.142;2022-12-18T01:54:59;10.87;;;9.87;;
18100;SDS011;9177;49.156;8.142;2022-12-18T01:57:28;10.53;;;9.40;;
18100;SDS011;9177;49.156;8.142;2022-12-18T01:59:56;10.40;;;9.40;;
18100;SDS011;9177;49.156;8.142;2022-12-18T02:02:29;10.60;;;9.60;;
18100;SDS011;9177;49.156;8.142;2022-12-18T02:04:57;10.57;;;9.57;;
18100;SDS011;9177;49.156;8.142;2022-12-18T02:07:26;11.20;;;10.10;;
18100;SDS011;9177;49.156;8.142;2022-12-18T02:10:02;10.73;;;9.63;;
18100;SDS011;9177;49.156;8.142;2022-12-18T02:12:34;10.53;;;9.10;;
18100;SDS011;9177;49.156;8.142;2022-12-18T02:15:11;10.17;;;9.27;;
18100;SDS011;9177;49.156;8.142;2022-12-18T02:17:43;10.43;;;9.43;;
18100;SDS011;9177;49.156;8.142;2022-12-18T02:20:16;10.10;;;9.03;;
18100;SDS011;9177;49.156;8.142;2022-12-18T02:22:51;10.60;;;9.50;;
18100;SDS011;9177;49.156;8.142;2022-12-18T02:25:34;10.47;;;9.37;;
18100;SDS011;9177;49.156;8.142;2022-12-18T02:28:13;10.23;;;9.30;;
18100;SDS011;9177;49.156;8.142;2022-12-18T02:30:44;10.47;;;9.47;;
18100;SDS011;9177;49.156;8.142;2022-12-18T02:33:13;10.63;;;9.53;;
18100;SDS011;9177;49.156;8.142;2022-12-18T02:35:41;10.50;;;9.50;;
18100;SDS011;9177;49.156;8.142;2022-12-18T02:38:10;10.33;;;9.33;;
18100;SDS011;9177;49.156;8.142;2022-12-18T02:40:38;10.83;;;9.73;;
18100;SDS011;9177;49.156;8.142;2022-12-18T02:43:07;10.67;;;9.67;;
18100;SDS011;9177;49.156;8.142;2022-12-18T02:45:36;10.63;;;9.63;;
18100;SDS011;9177;49.156;8.142;2022-12-18T02:48:12;11.50;;;10.40;;
18100;SDS011;9177;49.156;8.142;2022-12-18T02:50:49;11.40;;;10.20;;
18100;SDS011;9177;49.156;8.142;2022-12-18T02:53:24;10.47;;;9.43;;
18100;SDS011;9177;49.156;8.142;2022-12-18T02:55:58;10.50;;;9.50;;
18100;SDS011;9177;49.156;8.142;2022-12-18T02:58:33;10.97;;;9.87;;
18100;SDS011;9177;49.156;8.142;2022-12-18T03:01:09;10.60;;;9.60;;
18100;SDS011;9177;49.156;8.142;2022-12-18T03:03:40;11.20;;;10.00;;
18100;SDS011;9177;49.156;8.142;2022-12-18T03:06:12;11.23;;;10.13;;
18100;SDS011;9177;49.156;8.142;2022-12-18T03:08:46;10.50;;;9.50;;
18100;SDS011;9177;49.156;8.142;2022-12-18T03:11:17;10.83;;;9.73;;
18100;SDS011;9177;49.156;8.142;2022-12-18T03:14:04;10.77;;;9.70;;
18100;SDS011;9177;49.156;8.142;2022-12-18T03:16:34;11.20;;;10.03;;
18100;SDS011;9177;49.156;8.142;2022-12-18T03:19:03;10.50;;;9.40;;
18100;SDS011;9177;49.156;8.142;2022-12-18T03:21:36;11.47;;;10.33;;
18100;SDS011;9177;49.156;8.142;2022-12-18T03:24:08;10.33;;;9.33;;
18100;SDS011;9177;49.156;8.142;2022-12-18T03:26:37;11.17;;;10.07;;
18100;SDS011;9177;49.156;8.142;2022-12-18T03:29:09;11.00;;;10.00;;
18100;SDS011;9177;49.156;8.142;2022-12-18T03:31:45;10.70;;;9.63;;
18100;SDS011;9177;49.156;8.142;2022-12-18T03:34:17;10.90;;;9.83;;
18100;SDS011;9177;49.156;8.142;2022-12-18T03:36:49;11.40;;;10.20;;
18100;SDS011;9177;49.156;8.142;2022-12-18T03:39:16;11.30;;;10.20;;
18100;SDS011;9177;49.156;8.142;2022-12-18T03:41:43;10.87;;;9.87;;
18100;SDS011;9177;49.156;8.142;2022-12-18T03:44:13;10.60;;;9.60;;
18100;SDS011;9177;49.156;8.142;2022-12-18T03:46:49;10.60;;;9.50;;
18100;SDS011;9177;49.156;8.142;2022-12-18T03:49:25;11.37;;;10.27;;
18100;SDS011;9177;49.156;8.142;2022-12-18T03:52:01;11.97;;;10.77;;
18100;SDS011;9177;49.156;8.142;2022-12-18T03:54:31;11.63;;;10.47;;
18100;SDS011;9177;49.156;8.142;2022-12-18T03:57:01;11.00;;;9.90;;
18100;SDS011;9177;49.156;8.142;2022-12-18T03:59:32;10.83;;;9.73;;
18100;SDS011;9177;49.156;8.142;2022-12-18T04:02:02;10.77;;;9.77;;
18100;SDS011;9177;49.156;8.142;2022-12-18T04:04:33;10.63;;;9.63;;
18100;SDS011;9177;49.156;8.142;2022-12-18T04:07:01;10.60;;;9.60;;
18100;SDS011;9177;49.156;8.142;2022-12-18T04:09:30;10.97;;;9.97;;
18100;SDS011;9177;49.156;8.142;2022-12-18T04:11:59;12.13;;;10.93;;
18100;SDS011;9177;49.156;8.142;2022-12-18T04:14:25;11.67;;;10.43;;
18100;SDS011;9177;49.156;8.142;2022-12-18T04:16:52;10.93;;;9.83;;
18100;SDS011;9177;49.156;8.142;2022-12-18T04:19:21;11.40;;;10.30;;
18100;SDS011;9177;49.156;8.142;2022-12-18T04:21:51;10.33;;;9.27;;
18100;SDS011;9177;49.156;8.142;2022-12-18T04:24:18;11.57;;;10.47;;
18100;SDS011;9177;49.156;8.142;2022-12-18T04:26:45;11.00;;;9.90;;
18100;SDS011;9177;49.156;8.142;2022-12-18T04:29:14;10.67;;;9.67;;
18100;SDS011;9177;49.156;8.142;2022-12-18T04:31:41;11.43;;;10.23;;
18100;SDS011;9177;49.156;8.142;2022-12-18T04:34:08;10.77;;;9.67;;
18100;SDS011;9177;49.156;8.142;2022-12-18T04:36:36;11.20;;;10.10;;
18100;SDS011;9177;49.156;8.142;2022-12-18T04:39:04;11.03;;;9.93;;
18100;SDS011;9177;49.156;8.142;2022-12-18T04:41:30;11.27;;;10.17;;
18100;SDS011;9177;49.156;8.142;2022-12-18T04:44:01;11.57;;;10.47;;
18100;SDS011;9177;49.156;8.142;2022-12-18T04:46:28;11.27;;;10.27;;
18100;SDS011;9177;49.156;8.142;2022-12-18T04:48:55;11.07;;;9.97;;
18100;SDS011;9177;49.156;8.142;2022-12-18T04:51:22;10.33;;;9.43;;
18100;SDS011;9177;49.156;8.142;2022-12-18T04:53:50;11.20;;;10.17;;
18100;SDS011;9177;49.156;8.142;2022-12-18T04:56:17;10.70;;;9.60;;
18100;SDS011;9177;49.156;8.142;2022-12-18T04:58:44;11.13;;;10.10;;
18100;SDS011;9177;49.156;8.142;2022-12-18T05:01:12;11.30;;;10.20;;
18100;SDS011;9177;49.156;8.142;2022-12-18T05:03:40;10.33;;;9.33;;
18100;SDS011;9177;49.156;8.142;2022-12-18T05:06:07;11.53;;;10.43;;
18100;SDS011;9177;49.156;8.142;2022-12-18T05:08:35;10.90;;;9.80;;
18100;SDS011;9177;49.156;8.142;2022-12-18T05:11:04;11.47;;;10.37;;
18100;SDS011;9177;49.156;8.142;2022-12-18T05:13:32;11.87;;;10.23;;
18100;SDS011;9177;49.156;8.142;2022-12-18T05:16:00;10.93;;;9.93;;
18100;SDS011;9177;49.156;8.142;2022-12-18T05:18:27;10.87;;;9.77;;
18100;SDS011;9177;49.156;8.142;2022-12-18T05:20:54;11.13;;;10.03;;
18100;SDS011;9177;49.156;8.142;2022-12-18T05:23:22;11.13;;;10.03;;
18100;SDS011;9177;49.156;8.142;2022-12-18T05:25:51;11.00;;;10.00;;
18100;SDS011;9177;49.156;8.142;2022-12-18T05:28:21;11.07;;;9.97;;
18100;SDS011;9177;49.156;8.142;2022-12-18T05:30:48;10.73;;;9.73;;
18100;SDS011;9177;49.156;8.142;2022-12-18T05:33:16;10.63;;;9.63;;
18100;SDS011;9177;49.156;8.142;2022-12-18T05:35:43;10.30;;;9.33;;
18100;SDS011;9177;49.156;8.142;2022-12-18T05:38:10;11.07;;;9.93;;
18100;SDS011;9177;49.156;8.142;2022-12-18T05:40:37;11.00;;;9.90;;
18100;SDS011;9177;49.156;8.142;2022-12-18T05:43:08;11.13;;;9.97;;
18100;SDS011;9177;49.156;8.142;2022-12-18T05:45:37;11.40;;;10.30;;
18100;SDS011;9177;49.156;8.142;2022-12-18T05:48:05;10.33;;;9.33;;
18100;SDS011;9177;49.156;8.142;2022-12-18T05:50:33;11.50;;;10.37;;
18100;SDS011;9177;49.156;8.142;2022-12-18T05:53:01;11.00;;;9.90;;
18100;SDS011;9177;49.156;8.142;2022-12-18T05:55:27;10.93;;;9.93;;
18100;SDS011;9177;49.156;8.142;2022-12-18T05:57:54;10.67;;;9.57;;
18100;SDS011;9177;49.156;8.142;2022-12-18T06:00:21;10.83;;;9.73;;
18100;SDS011;9177;49.156;8.142;2022-12-18T06:02:49;10.93;;;9.83;;
18100;SDS011;9177;49.156;8.142;2022-12-18T06:05:16;9.87;;;8.90;;
18100;SDS011;9177;49.156;8.142;2022-12-18T06:07:43;10.40;;;9.40;;
18100;SDS011;9177;49.156;8.142;2022-12-18T06:10:10;10.70;;;9.70;;
18100;SDS011;9177;49.156;8.142;2022-12-18T06:12:37;10.73;;;9.73;;
18100;SDS011;9177;49.156;8.142;2022-12-18T06:15:04;11.03;;;9.87;;
18100;SDS011;9177;49.156;8.142;2022-12-18T06:17:32;10.33;;;9.43;;
18100;SDS011;9177;49.156;8.142;2022-12-18T06:20:01;10.73;;;9.63;;
18100;SDS011;9177;49.156;8.142;2022-12-18T06:22:30;11.93;;;10.70;;
18100;SDS011;9177;49.156;8.142;2022-12-18T06:24:57;11.00;;;9.90;;
18100;SDS011;9177;49.156;8.142;2022-12-18T06:27:24;11.03;;;9.93;;
18100;SDS011;9177;49.156;8.142;2022-12-18T06:29:51;10.97;;;9.97;;
18100;SDS011;9177;49.156;8.142;2022-12-18T06:32:18;10.67;;;9.57;;
18100;SDS011;9177;49.156;8.142;2022-12-18T06:34:45;10.23;;;9.30;;
18100;SDS011;9177;49.156;8.142;2022-12-18T06:37:14;11.20;;;10.10;;
18100;SDS011;9177;49.156;8.142;2022-12-18T06:39:43;10.67;;;9.67;;
18100;SDS011;9177;49.156;8.142;2022-12-18T06:42:09;11.10;;;10.00;;
18100;SDS011;9177;49.156;8.142;2022-12-18T06:44:37;10.93;;;9.93;;
18100;SDS011;9177;49.156;8.142;2022-12-18T06:47:04;11.27;;;10.27;;
18100;SDS011;9177;49.156;8.142;2022-12-18T06:49:31;11.27;;;10.27;;
18100;SDS011;9177;49.156;8.142;2022-12-18T06:51:58;11.07;;;10.00;;
18100;SDS011;9177;49.156;8.142;2022-12-18T06:54:26;10.47;;;9.43;;
18100;SDS011;9177;49.156;8.142;2022-12-18T06:56:53;10.40;;;9.40;;
18100;SDS011;9177;49.156;8.142;2022-12-18T06:59:20;11.20;;;10.00;;
18100;SDS011;9177;49.156;8.142;2022-12-18T07:01:47;10.73;;;9.63;;
18100;SDS011;9177;49.156;8.142;2022-12-18T07:04:14;10.60;;;9.60;;
18100;SDS011;9177;49.156;8.142;2022-12-18T07:06:40;10.80;;;9.67;;
18100;SDS011;9177;49.156;8.142;2022-12-18T07:09:07;10.73;;;9.80;;
18100;SDS011;9177;49.156;8.142;2022-12-18T07:11:36;10.87;;;9.87;;
18100;SDS011;9177;49.156;8.142;2022-12-18T07:14:02;10.60;;;9.60;;
18100;SDS011;9177;49.156;8.142;2022-12-18T07:19:49;10.53;;;9.47;;
18100;SDS011;9177;49.156;8.142;2022-12-18T07:22:20;10.53;;;9.53;;
18100;SDS011;9177;49.156;8.142;2022-12-18T07:24:50;10.57;;;9.67;;
18100;SDS011;9177;49.156;8.142;2022-12-18T07:27:19;10.70;;;9.57;;
18100;SDS011;9177;49.156;8.142;2022-12-18T07:29:47;10.23;;;9.33;;
18100;SDS011;9177;49.156;8.142;2022-12-18T07:32:15;10.87;;;9.77;;
18100;SDS011;9177;49.156;8.142;2022-12-18T07:34:42;10.33;;;9.33;;
18100;SDS011;9177;49.156;8.142;2022-12-18T07:37:10;11.27;;;10.07;;
18100;SDS011;9177;49.156;8.142;2022-12-18T07:39:37;11.33;;;10.23;;
18100;SDS011;9177;49.156;8.142;2022-12-18T07:42:08;11.60;;;10.40;;
18100;SDS011;9177;49.156;8.142;2022-12-18T07:44:54;10.40;;;9.40;;
18100;SDS011;9177;49.156;8.142;2022-12-18T07:47:22;10.73;;;9.73;;
18100;SDS011;9177;49.156;8.142;2022-12-18T07:49:49;11.00;;;10.00;;
18100;SDS011;9177;49.156;8.142;2022-12-18T07:52:17;11.57;;;10.43;;
18100;SDS011;9177;49.156;8.142;2022-12-18T07:54:44;11.40;;;10.30;;
18100;SDS011;9177;49.156;8.142;2022-12-18T07:57:17;10.67;;;9.60;;
18100;SDS011;9177;49.156;8.142;2022-12-18T07:59:46;10.37;;;9.33;;
18100;SDS011;9177;49.156;8.142;2022-12-18T08:02:15;10.30;;;9.30;;
18100;SDS011;9177;49.156;8.142;2022-12-18T08:04:42;10.83;;;9.83;;
18100;SDS011;9177;49.156;8.142;2022-12-18T08:07:15;10.63;;;9.63;;
18100;SDS011;9177;49.156;8.142;2022-12-18T08:09:42;10.60;;;9.60;;
18100;SDS011;9177;49.156;8.142;2022-12-18T08:12:10;11.23;;;10.13;;
18100;SDS011;9177;49.156;8.142;2022-12-18T08:14:37;11.17;;;9.97;;
18100;SDS011;9177;49.156;8.142;2022-12-18T08:17:05;10.57;;;9.67;;
18100;SDS011;9177;49.156;8.142;2022-12-18T08:19:34;10.67;;;9.67;;
18100;SDS011;9177;49.156;8.142;2022-12-18T08:22:02;10.90;;;9.83;;
18100;SDS011;9177;49.156;8.142;2022-12-18T08:24:29;10.63;;;9.60;;
18100;SDS011;9177;49.156;8.142;2022-12-18T08:26:57;10.67;;;9.57;;
18100;SDS011;9177;49.156;8.142;2022-12-18T08:29:25;11.07;;;9.97;;
18100;SDS011;9177;49.156;8.142;2022-12-18T08:31:52;10.63;;;9.63;;
18100;SDS011;9177;49.156;8.142;2022-12-18T08:34:20;11.00;;;10.00;;
18100;SDS011;9177;49.156;8.142;2022-12-18T08:36:49;11.23;;;10.20;;
18100;SDS011;9177;49.156;8.142;2022-12-18T08:39:17;10.97;;;9.87;;
18100;SDS011;9177;49.156;8.142;2022-12-18T08:41:44;10.67;;;9.67;;
18100;SDS011;9177;49.156;8.142;2022-12-18T08:44:32;10.70;;;9.60;;
18100;SDS011;9177;49.156;8.142;2022-12-18T08:47:05;11.03;;;9.93;;
18100;SDS011;9177;49.156;8.142;2022-12-18T08:49:33;10.50;;;9.50;;
18100;SDS011;9177;49.156;8.142;2022-12-18T08:52:03;10.87;;;9.77;;
18100;SDS011;9177;49.156;8.142;2022-12-18T08:54:31;10.83;;;9.73;;
18100;SDS011;9177;49.156;8.142;2022-12-18T08:56:59;11.00;;;9.87;;
18100;SDS011;9177;49.156;8.142;2022-12-18T08:59:29;10.70;;;9.70;;
18100;SDS011;9177;49.156;8.142;2022-12-18T09:01:57;10.23;;;9.30;;
18100;SDS011;9177;49.156;8.142;2022-12-18T09:04:25;11.00;;;10.00;;
18100;SDS011;9177;49.156;8.142;2022-12-18T09:06:55;10.60;;;9.60;;
18100;SDS011;9177;49.156;8.142;2022-12-18T09:09:24;10.57;;;9.53;;
18100;SDS011;9177;49.156;8.142;2022-12-18T09:11:52;10.43;;;9.43;;
18100;SDS011;9177;49.156;8.142;2022-12-18T09:14:19;11.37;;;10.27;;
18100;SDS011;9177;49.156;8.142;2022-12-18T09:16:47;10.07;;;9.13;;
18100;SDS011;9177;49.156;8.142;2022-12-18T09:19:15;11.37;;;10.10;;
18100;SDS011;9177;49.156;8.142;2022-12-18T09:21:42;10.40;;;9.40;;
18100;SDS011;9177;49.156;8.142;2022-12-18T09:24:11;10.40;;;9.40;;
18100;SDS011;9177;49.156;8.142;2022-12-18T09:26:41;10.50;;;9.47;;
18100;SDS011;9177;49.156;8.142;2022-12-18T09:29:09;10.37;;;9.37;;
18100;SDS011;9177;49.156;8.142;2022-12-18T09:31:37;10.73;;;9.73;;
18100;SDS011;9177;49.156;8.142;2022-12-18T09:34:05;10.70;;;9.70;;
18100;SDS011;9177;49.156;8.142;2022-12-18T09:36:33;10.57;;;9.47;;
18100;SDS011;9177;49.156;8.142;2022-12-18T09:39:00;10.67;;;9.57;;
18100;SDS011;9177;49.156;8.142;2022-12-18T09:41:34;9.67;;;8.67;;
18100;SDS011;9177;49.156;8.142;2022-12-18T09:44:14;10.57;;;9.53;;
18100;SDS011;9177;49.156;8.142;2022-12-18T09:46:46;10.17;;;9.17;;
18100;SDS011;9177;49.156;8.142;2022-12-18T09:49:24;10.47;;;9.47;;
18100;SDS011;9177;49.156;8.142;2022-12-18T09:51:54;10.67;;;9.67;;
18100;SDS011;9177;49.156;8.142;2022-12-18T09:54:29;10.37;;;9.47;;
18100;SDS011;9177;49.156;8.142;2022-12-18T09:57:03;10.83;;;9.73;;
18100;SDS011;9177;49.156;8.142;2022-12-18T09:59:32;10.47;;;9.47;;
18100;SDS011;9177;49.156;8.142;2022-12-18T10:02:11;11.70;;;10.53;;
18100;SDS011;9177;49.156;8.142;2022-12-18T10:04:42;9.80;;;8.90;;
18100;SDS011;9177;49.156;8.142;2022-12-18T10:07:14;9.80;;;8.90;;
18100;SDS011;9177;49.156;8.142;2022-12-18T10:09:47;10.53;;;9.53;;
18100;SDS011;9177;49.156;8.142;2022-12-18T10:12:22;10.60;;;9.57;;
18100;SDS011;9177;49.156;8.142;2022-12-18T10:14:59;10.50;;;9.40;;
18100;SDS011;9177;49.156;8.142;2022-12-18T10:17:33;9.93;;;9.03;;
18100;SDS011;9177;49.156;8.142;2022-12-18T10:20:09;10.33;;;9.40;;
18100;SDS011;9177;49.156;8.142;2022-12-18T10:22:43;10.23;;;9.30;;
18100;SDS011;9177;49.156;8.142;2022-12-18T10:25:18;10.47;;;9.47;;
18100;SDS011;9177;49.156;8.142;2022-12-18T10:27:52;10.80;;;9.80;;
18100;SDS011;9177;49.156;8.142;2022-12-18T10:30:23;10.47;;;9.47;;
18100;SDS011;9177;49.156;8.142;2022-12-18T10:32:52;10.47;;;9.47;;
18100;SDS011;9177;49.156;8.142;2022-12-18T10:35:22;10.77;;;9.70;;
18100;SDS011;9177;49.156;8.142;2022-12-18T10:38:04;10.73;;;9.83;;
18100;SDS011;9177;49.156;8.142;2022-12-18T10:40:36;10.83;;;9.80;;
18100;SDS011;9177;49.156;8.142;2022-12-18T10:43:19;10.07;;;9.17;;
18100;SDS011;9177;49.156;8.142;2022-12-18T10:46:00;10.43;;;9.40;;
18100;SDS011;9177;49.156;8.142;2022-12-18T10:48:52;10.60;;;9.60;;
18100;SDS011;9177;49.156;8.142;2022-12-18T10:51:23;10.27;;;9.20;;
18100;SDS011;9177;49.156;8.142;2022-12-18T10:53:54;10.53;;;9.63;;
18100;SDS011;9177;49.156;8.142;2022-12-18T10:56:24;10.20;;;9.20;;
18100;SDS011;9177;49.156;8.142;2022-12-18T10:58:59;11.13;;;10.07;;
18100;SDS011;9177;49.156;8.142;2022-12-18T11:01:28;10.00;;;9.10;;
18100;SDS011;9177;49.156;8.142;2022-12-18T11:04:13;10.00;;;9.10;;
18100;SDS011;9177;49.156;8.142;2022-12-18T11:06:52;10.50;;;9.50;;
18100;SDS011;9177;49.156;8.142;2022-12-18T11:09:21;10.17;;;9.17;;
18100;SDS011;9177;49.156;8.142;2022-12-18T11:11:51;10.33;;;9.33;;
18100;SDS011;9177;49.156;8.142;2022-12-18T11:14:22;9.80;;;8.90;;
18100;SDS011;9177;49.156;8.142;2022-12-18T11:16:52;10.17;;;9.23;;
18100;SDS011;9177;49.156;8.142;2022-12-18T11:19:23;10.27;;;9.37;;
18100;SDS011;9177;49.156;8.142;2022-12-18T11:21:58;10.13;;;9.17;;
18100;SDS011;9177;49.156;8.142;2022-12-18T11:24:31;10.60;;;9.60;;
18100;SDS011;9177;49.156;8.142;2022-12-18T11:27:00;10.43;;;9.43;;
18100;SDS011;9177;49.156;8.142;2022-12-18T11:29:33;9.10;;;8.30;;
18100;SDS011;9177;49.156;8.142;2022-12-18T11:32:18;9.50;;;8.60;;
18100;SDS011;9177;49.156;8.142;2022-12-18T11:34:55;9.87;;;9.00;;
18100;SDS011;9177;49.156;8.142;2022-12-18T11:37:28;10.13;;;9.23;;
18100;SDS011;9177;49.156;8.142;2022-12-18T11:39:56;10.87;;;9.87;;
18100;SDS011;9177;49.156;8.142;2022-12-18T11:42:28;10.30;;;9.30;;
18100;SDS011;9177;49.156;8.142;2022-12-18T11:45:07;9.47;;;8.60;;
18100;SDS011;9177;49.156;8.142;2022-12-18T11:47:49;10.40;;;9.50;;
18100;SDS011;9177;49.156;8.142;2022-12-18T11:50:24;9.90;;;9.00;;
18100;SDS011;9177;49.156;8.142;2022-12-18T11:52:55;9.87;;;8.97;;
18100;SDS011;9177;49.156;8.142;2022-12-18T11:55:25;9.97;;;9.07;;
18100;SDS011;9177;49.156;8.142;2022-12-18T11:58:06;9.77;;;8.87;;
18100;SDS011;9177;49.156;8.142;2022-12-18T12:00:43;10.00;;;9.03;;
18100;SDS011;9177;49.156;8.142;2022-12-18T12:03:21;9.70;;;8.80;;
18100;SDS011;9177;49.156;8.142;2022-12-18T12:06:12;9.93;;;9.03;;
18100;SDS011;9177;49.156;8.142;2022-12-18T12:08:51;10.60;;;9.57;;
18100;SDS011;9177;49.156;8.142;2022-12-18T12:11:29;10.30;;;9.40;;
18100;SDS011;9177;49.156;8.142;2022-12-18T12:14:08;10.00;;;9.10;;
18100;SDS011;9177;49.156;8.142;2022-12-18T12:16:52;10.07;;;9.07;;
18100;SDS011;9177;49.156;8.142;2022-12-18T12:19:29;10.70;;;9.70;;
18100;SDS011;9177;49.156;8.142;2022-12-18T12:22:05;11.03;;;10.00;;
18100;SDS011;9177;49.156;8.142;2022-12-18T12:24:44;10.57;;;9.60;;
18100;SDS011;9177;49.156;8.142;2022-12-18T12:27:23;9.43;;;8.53;;
18100;SDS011;9177;49.156;8.142;2022-12-18T12:30:00;9.93;;;9.03;;
18100;SDS011;9177;49.156;8.142;2022-12-18T12:32:37;10.13;;;9.13;;
18100;SDS011;9177;49.156;8.142;2022-12-18T12:35:22;9.80;;;8.83;;
18100;SDS011;9177;49.156;8.142;2022-12-18T12:38:02;10.60;;;9.60;;
18100;SDS011;9177;49.156;8.142;2022-12-18T12:40:35;10.90;;;9.90;;
18100;SDS011;9177;49.156;8.142;2022-12-18T12:43:11;10.20;;;9.30;;
18100;SDS011;9177;49.156;8.142;2022-12-18T12:45:55;9.77;;;8.87;;
18100;SDS011;9177;49.156;8.142;2022-12-18T12:48:36;10.33;;;9.33;;
18100;SDS011;9177;49.156;8.142;2022-12-18T12:51:10;9.87;;;8.97;;
18100;SDS011;9177;49.156;8.142;2022-12-18T12:53:42;10.67;;;9.67;;
18100;SDS011;9177;49.156;8.142;2022-12-18T12:56:13;9.97;;;8.97;;
18100;SDS011;9177;49.156;8.142;2022-12-18T12:58:49;10.27;;;9.27;;
18100;SDS011;9177;49.156;8.142;2022-12-18T13:01:28;10.97;;;9.97;;
18100;SDS011;9177;49.156;8.142;2022-12-18T13:04:11;10.47;;;9.47;;
18100;SDS011;9177;49.156;8.142;2022-12-18T13:06:46;10.73;;;9.73;;
18100;SDS011;9177;49.156;8.142;2022-12-18T13:09:17;10.30;;;9.33;;
18100;SDS011;9177;49.156;8.142;2022-12-18T13:11:49;10.60;;;9.70;;
18100;SDS011;9177;49.156;8.142;2022-12-18T13:14:34;10.87;;;9.87;;
18100;SDS011;9177;49.156;8.142;2022-12-18T13:20:13;11.57;;;10.47;;
18100;SDS011;9177;49.156;8.142;2022-12-18T13:22:43;11.20;;;10.10;;
18100;SDS011;9177;49.156;8.142;2022-12-18T13:25:28;11.37;;;10.27;;
18100;SDS011;9177;49.156;8.142;2022-12-18T13:28:02;11.13;;;10.03;;
18100;SDS011;9177;49.156;8.142;2022-12-18T13:36:27;11.90;;;10.70;;
18100;SDS011;9177;49.156;8.142;2022-12-18T13:48:21;11.57;;;10.47;;
18100;SDS011;9177;49.156;8.142;2022-12-18T13:50:55;11.23;;;10.20;;
18100;SDS011;9177;49.156;8.142;2022-12-18T13:53:32;10.60;;;9.57;;
18100;SDS011;9177;49.156;8.142;2022-12-18T13:56:03;11.67;;;10.57;;
18100;SDS011;9177;49.156;8.142;2022-12-18T13:58:31;11.77;;;10.67;;
18100;SDS011;9177;49.156;8.142;2022-12-18T14:00:59;11.70;;;10.60;;
18100;SDS011;9177;49.156;8.142;2022-12-18T14:03:30;11.97;;;10.87;;
18100;SDS011;9177;49.156;8.142;2022-12-18T14:13:24;13.57;;;12.30;;
18100;SDS011;9177;49.156;8.142;2022-12-18T14:15:56;14.40;;;12.90;;
18100;SDS011;9177;49.156;8.142;2022-12-18T14:18:25;13.63;;;12.27;;
18100;SDS011;9177;49.156;8.142;2022-12-18T14:21:01;14.33;;;12.90;;
18100;SDS011;9177;49.156;8.142;2022-12-18T14:23:31;13.67;;;12.27;;
18100;SDS011;9177;49.156;8.142;2022-12-18T14:25:59;12.53;;;11.37;;
18100;SDS011;9177;49.156;8.142;2022-12-18T14:28:28;13.80;;;12.20;;
18100;SDS011;9177;49.156;8.142;2022-12-18T14:30:56;13.33;;;12.03;;
18100;SDS011;9177;49.156;8.142;2022-12-18T14:33:23;12.60;;;11.30;;
18100;SDS011;9177;49.156;8.142;2022-12-18T14:35:53;13.47;;;12.00;;
18100;SDS011;9177;49.156;8.142;2022-12-18T14:38:25;13.03;;;11.63;;
18100;SDS011;9177;49.156;8.142;2022-12-18T14:40:56;14.03;;;12.63;;
18100;SDS011;9177;49.156;8.142;2022-12-18T14:43:29;14.63;;;12.13;;
18100;SDS011;9177;49.156;8.142;2022-12-18T14:45:58;13.27;;;11.87;;
18100;SDS011;9177;49.156;8.142;2022-12-18T14:48:36;14.60;;;11.90;;
18100;SDS011;9177;49.156;8.142;2022-12-18T14:51:05;15.07;;;11.90;;
18100;SDS011;9177;49.156;8.142;2022-12-18T14:53:42;13.20;;;11.80;;
18100;SDS011;9177;49.156;8.142;2022-12-18T14:56:14;13.13;;;11.50;;
18100;SDS011;9177;49.156;8.142;2022-12-18T14:58:51;15.17;;;11.37;;
18100;SDS011;9177;49.156;8.142;2022-12-18T15:01:38;12.87;;;11.57;;
18100;SDS011;9177;49.156;8.142;2022-12-18T15:04:24;12.87;;;11.07;;
18100;SDS011;9177;49.156;8.142;2022-12-18T15:07:17;12.73;;;11.43;;
18100;SDS011;9177;49.156;8.142;2022-12-18T15:10:03;13.43;;;12.07;;
18100;SDS011;9177;49.156;8.142;2022-12-18T15:12:41;13.50;;;12.20;;
18100;SDS011;9177;49.156;8.142;2022-12-18T15:31:57;13.30;;;11.90;;
18100;SDS011;9177;49.156;8.142;2022-12-18T15:34:26;11.80;;;10.63;;
18100;SDS011;9177;49.156;8.142;2022-12-18T15:36:54;12.83;;;11.53;;
18100;SDS011;9177;49.156;8.142;2022-12-18T15:39:21;12.47;;;11.17;;
18100;SDS011;9177;49.156;8.142;2022-12-18T15:41:48;12.23;;;11.13;;
18100;SDS011;9177;49.156;8.142;2022-12-18T15:44:34;12.97;;;11.50;;
18100;SDS011;9177;49.156;8.142;2022-12-18T15:47:01;12.53;;;11.10;;
18100;SDS011;9177;49.156;8.142;2022-12-18T15:49:28;12.17;;;11.03;;
18100;SDS011;9177;49.156;8.142;2022-12-18T15:57:07;12.03;;;10.93;;
18100;SDS011;9177;49.156;8.142;2022-12-18T15:59:51;12.60;;;11.30;;
18100;SDS011;9177;49.156;8.142;2022-12-18T16:02:23;12.67;;;11.37;;